createdAt,value
2023-05-02T00:00:26.219Z,1008.55
2023-05-02T00:01:16.457Z,1008.55
2023-05-02T00:02:17.111Z,1008.55
2023-05-02T00:03:17.185Z,1008.54
2023-05-02T00:04:16.588Z,1008.56
2023-05-02T00:05:16.541Z,1008.51
2023-05-02T00:06:16.468Z,1008.51
2023-05-02T00:07:16.453Z,1008.52
2023-05-02T00:08:16.466Z,1008.53
2023-05-02T00:09:16.528Z,1008.53
2023-05-02T00:10:16.457Z,1008.57
2023-05-02T00:11:17.134Z,1008.55
2023-05-02T00:12:17.120Z,1008.50
2023-05-02T00:13:17.127Z,1008.56
2023-05-02T00:14:17.167Z,1008.54
2023-05-02T00:15:16.427Z,1008.48
2023-05-02T00:16:17.526Z,1008.53
2023-05-02T00:17:16.509Z,1008.50
2023-05-02T00:18:16.496Z,1008.49
2023-05-02T00:19:16.421Z,1008.48
2023-05-02T00:20:23.600Z,1008.51
2023-05-02T00:22:21.846Z,1008.50
2023-05-02T00:23:21.330Z,1008.45
2023-05-02T00:25:25.800Z,1008.48
2023-05-02T00:26:24.426Z,1008.46
2023-05-02T00:28:17.579Z,1008.47
2023-05-02T00:29:17.549Z,1008.47
2023-05-02T00:31:10.595Z,1008.48
2023-05-02T00:32:10.500Z,1008.49
2023-05-02T00:34:04.467Z,1008.48
2023-05-02T00:35:03.616Z,1008.44
2023-05-02T00:37:07.619Z,1008.48
2023-05-02T00:38:07.729Z,1008.48
2023-05-02T00:40:11.611Z,1008.44
2023-05-02T00:41:12.509Z,1008.45
2023-05-02T00:43:15.635Z,1008.49
2023-05-02T00:44:15.591Z,1008.47
2023-05-02T00:46:20.513Z,1008.45
2023-05-02T00:47:20.496Z,1008.47
2023-05-02T00:49:23.652Z,1008.50
2023-05-02T00:50:23.645Z,1008.47
2023-05-02T00:52:28.269Z,1008.48
2023-05-02T00:53:28.324Z,1008.46
2023-05-02T00:55:31.876Z,1008.54
2023-05-02T00:56:31.827Z,1008.48
2023-05-02T00:58:35.822Z,1008.49
2023-05-02T00:59:35.815Z,1008.49
2023-05-02T01:01:28.830Z,1008.48
2023-05-02T01:02:28.865Z,1008.46
2023-05-02T01:04:32.812Z,1008.50
2023-05-02T01:05:32.789Z,1008.47
2023-05-02T01:07:37.725Z,1008.53
2023-05-02T01:08:36.777Z,1008.53
2023-05-02T01:10:42.172Z,1008.49
2023-05-02T01:11:40.818Z,1008.53
2023-05-02T01:13:44.789Z,1008.52
2023-05-02T01:14:44.788Z,1008.52
2023-05-02T01:16:48.852Z,1008.54
2023-05-02T01:17:50.181Z,1008.51
2023-05-02T01:19:53.686Z,1008.58
2023-05-02T01:20:52.788Z,1008.59
2023-05-02T01:22:46.665Z,1008.52
2023-05-02T01:23:47.670Z,1008.57
2023-05-02T01:24:45.920Z,1008.53
2023-05-02T01:25:45.921Z,1008.56
2023-05-02T01:26:46.670Z,1008.58
2023-05-02T01:27:45.938Z,1008.58
2023-05-02T01:28:46.675Z,1008.60
2023-05-02T01:29:45.949Z,1008.55
2023-05-02T01:30:45.900Z,1008.60
2023-05-02T01:31:46.055Z,1008.61
2023-05-02T01:32:45.991Z,1008.66
2023-05-02T01:33:45.971Z,1008.64
2023-05-02T01:34:46.407Z,1008.66
2023-05-02T01:35:45.878Z,1008.58
2023-05-02T01:36:45.878Z,1008.67
2023-05-02T01:37:45.966Z,1008.67
2023-05-02T01:38:46.681Z,1008.70
2023-05-02T01:39:47.257Z,1008.70
2023-05-02T01:40:45.869Z,1008.67
2023-05-02T01:41:45.885Z,1008.71
2023-05-02T01:42:45.892Z,1008.70
2023-05-02T01:43:46.677Z,1008.69
2023-05-02T01:44:47.268Z,1008.71
2023-05-02T01:45:45.898Z,1008.74
2023-05-02T01:46:46.726Z,1008.79
2023-05-02T01:47:45.921Z,1008.78
2023-05-02T01:48:45.884Z,1008.78
2023-05-02T01:49:45.891Z,1008.82
2023-05-02T01:50:45.864Z,1008.79
2023-05-02T01:51:46.705Z,1008.84
2023-05-02T01:52:48.842Z,1008.79
2023-05-02T01:53:45.906Z,1008.82
2023-05-02T01:54:45.848Z,1008.85
2023-05-02T01:55:45.860Z,1008.82
2023-05-02T01:56:46.686Z,1008.84
2023-05-02T01:57:47.276Z,1008.84
2023-05-02T01:58:45.846Z,1008.81
2023-05-02T01:59:46.689Z,1008.81
2023-05-02T02:00:45.885Z,1008.84
2023-05-02T02:01:45.834Z,1008.80
2023-05-02T02:02:45.851Z,1008.79
2023-05-02T02:03:47.208Z,1008.84
2023-05-02T02:04:45.952Z,1008.84
2023-05-02T02:05:46.753Z,1008.84
2023-05-02T02:06:45.874Z,1008.87
2023-05-02T02:07:45.824Z,1008.80
2023-05-02T02:08:45.835Z,1008.84
2023-05-02T02:09:45.850Z,1008.82
2023-05-02T02:10:47.186Z,1008.85
2023-05-02T02:11:45.913Z,1008.86
2023-05-02T02:12:45.807Z,1008.83
2023-05-02T02:13:45.806Z,1008.83
2023-05-02T02:14:45.793Z,1008.88
2023-05-02T02:15:45.838Z,1008.87
2023-05-02T02:16:45.892Z,1008.91
2023-05-02T02:17:45.823Z,1008.90
2023-05-02T02:18:45.800Z,1008.96
2023-05-02T02:19:45.804Z,1008.93
2023-05-02T02:20:45.784Z,1008.97
2023-05-02T02:21:45.782Z,1008.99
2023-05-02T02:22:45.805Z,1009.00
2023-05-02T02:23:45.779Z,1008.98
2023-05-02T02:24:45.778Z,1008.96
2023-05-02T02:25:45.784Z,1008.97
2023-05-02T02:26:47.186Z,1009.01
2023-05-02T02:27:45.789Z,1009.07
2023-05-02T02:28:45.773Z,1009.06
2023-05-02T02:29:45.802Z,1009.09
2023-05-02T02:30:45.776Z,1009.08
2023-05-02T02:31:45.765Z,1009.10
2023-05-02T02:32:45.794Z,1009.11
2023-05-02T02:33:45.763Z,1009.16
2023-05-02T02:34:47.188Z,1009.16
2023-05-02T02:35:46.756Z,1009.17
2023-05-02T02:36:45.778Z,1009.12
2023-05-02T02:37:45.753Z,1009.18
2023-05-02T02:38:45.782Z,1009.23
2023-05-02T02:39:45.754Z,1009.23
2023-05-02T02:40:45.796Z,1009.26
2023-05-02T02:41:45.734Z,1009.28
2023-05-02T02:42:45.742Z,1009.28
2023-05-02T02:43:46.267Z,1009.30
2023-05-02T02:44:45.726Z,1009.28
2023-05-02T02:45:45.867Z,1009.29
2023-05-02T02:46:45.830Z,1009.31
2023-05-02T02:47:46.764Z,1009.31
2023-05-02T02:48:45.716Z,1009.32
2023-05-02T02:49:45.725Z,1009.31
2023-05-02T02:50:45.719Z,1009.32
2023-05-02T02:51:45.748Z,1009.32
2023-05-02T02:52:45.698Z,1009.35
2023-05-02T02:53:45.707Z,1009.39
2023-05-02T02:54:45.703Z,1009.38
2023-05-02T02:55:45.710Z,1009.36
2023-05-02T02:56:45.700Z,1009.36
2023-05-02T02:57:45.688Z,1009.41
2023-05-02T02:58:45.703Z,1009.40
2023-05-02T02:59:45.791Z,1009.44
2023-05-02T03:00:47.192Z,1009.43
2023-05-02T03:01:46.201Z,1009.49
2023-05-02T03:02:46.253Z,1009.49
2023-05-02T03:03:45.694Z,1009.51
2023-05-02T03:04:45.721Z,1009.55
2023-05-02T03:05:45.664Z,1009.53
2023-05-02T03:06:46.235Z,1009.58
2023-05-02T03:07:45.681Z,1009.67
2023-05-02T03:08:46.182Z,1009.72
2023-05-02T03:09:46.199Z,1009.71
2023-05-02T03:10:45.660Z,1009.74
2023-05-02T03:11:45.679Z,1009.79
2023-05-02T03:12:45.653Z,1009.78
2023-05-02T03:13:45.687Z,1009.80
2023-05-02T03:14:45.650Z,1009.89
2023-05-02T03:15:45.705Z,1009.86
2023-05-02T03:16:45.702Z,1009.93
2023-05-02T03:17:45.694Z,1009.91
2023-05-02T03:18:45.634Z,1009.93
2023-05-02T03:19:45.735Z,1009.92
2023-05-02T03:20:45.641Z,1009.96
2023-05-02T03:21:45.658Z,1009.93
2023-05-02T03:22:45.628Z,1009.96
2023-05-02T03:23:45.640Z,1009.95
2023-05-02T03:24:45.630Z,1009.99
2023-05-02T03:25:46.214Z,1010.02
2023-05-02T03:26:46.778Z,1010.06
2023-05-02T03:27:45.611Z,1010.06
2023-05-02T03:28:47.701Z,1010.07
2023-05-02T03:29:45.600Z,1010.11
2023-05-02T03:30:45.607Z,1010.06
2023-05-02T03:31:46.272Z,1010.10
2023-05-02T03:32:46.722Z,1010.14
2023-05-02T03:33:45.611Z,1010.09
2023-05-02T03:34:45.601Z,1010.10
2023-05-02T03:35:45.587Z,1010.04
2023-05-02T03:36:45.590Z,1010.06
2023-05-02T03:37:45.630Z,1010.05
2023-05-02T03:38:45.589Z,1010.09
2023-05-02T03:39:46.207Z,1010.14
2023-05-02T03:40:45.602Z,1010.12
2023-05-02T03:41:46.206Z,1010.17
2023-05-02T03:42:45.598Z,1010.11
2023-05-02T03:43:46.209Z,1010.12
2023-05-02T03:44:45.562Z,1010.12
2023-05-02T03:45:48.135Z,1010.09
2023-05-02T03:46:46.263Z,1010.13
2023-05-02T03:47:45.577Z,1010.15
2023-05-02T03:48:46.270Z,1010.14
2023-05-02T03:49:45.548Z,1010.11
2023-05-02T03:50:45.566Z,1010.15
2023-05-02T03:51:45.540Z,1010.18
2023-05-02T03:52:45.542Z,1010.20
2023-05-02T03:53:45.534Z,1010.26
2023-05-02T03:54:46.650Z,1010.25
2023-05-02T03:55:45.552Z,1010.27
2023-05-02T03:56:45.569Z,1010.27
2023-05-02T03:57:46.216Z,1010.35
2023-05-02T03:58:45.522Z,1010.32
2023-05-02T03:59:45.547Z,1010.33
2023-05-02T04:00:45.535Z,1010.38
2023-05-02T04:01:45.540Z,1010.41
2023-05-02T04:02:45.646Z,1010.41
2023-05-02T04:03:45.759Z,1010.38
2023-05-02T04:04:46.280Z,1010.37
2023-05-02T04:05:45.523Z,1010.38
2023-05-02T04:06:46.237Z,1010.41
2023-05-02T04:07:45.531Z,1010.45
2023-05-02T04:08:45.553Z,1010.48
2023-05-02T04:09:46.221Z,1010.52
2023-05-02T04:10:45.491Z,1010.56
2023-05-02T04:11:46.219Z,1010.56
2023-05-02T04:12:46.654Z,1010.57
2023-05-02T04:13:46.222Z,1010.61
2023-05-02T04:14:45.479Z,1010.61
2023-05-02T04:15:45.509Z,1010.61
2023-05-02T04:16:45.547Z,1010.60
2023-05-02T04:17:45.513Z,1010.59
2023-05-02T04:18:47.720Z,1010.64
2023-05-02T04:19:45.475Z,1010.63
2023-05-02T04:20:45.477Z,1010.65
2023-05-02T04:21:46.220Z,1010.65
2023-05-02T04:22:46.281Z,1010.65
2023-05-02T04:23:45.456Z,1010.65
2023-05-02T04:24:45.457Z,1010.66
2023-05-02T04:25:45.464Z,1010.73
2023-05-02T04:26:45.449Z,1010.72
2023-05-02T04:27:45.457Z,1010.73
2023-05-02T04:28:45.451Z,1010.75
2023-05-02T04:29:45.474Z,1010.73
2023-05-02T04:30:46.290Z,1010.78
2023-05-02T04:31:45.437Z,1010.80
2023-05-02T04:32:46.255Z,1010.81
2023-05-02T04:33:45.438Z,1010.83
2023-05-02T04:34:45.470Z,1010.81
2023-05-02T04:35:47.736Z,1010.81
2023-05-02T04:36:45.425Z,1010.81
2023-05-02T04:37:45.415Z,1010.84
2023-05-02T04:38:45.426Z,1010.82
2023-05-02T04:39:45.404Z,1010.79
2023-05-02T04:40:46.805Z,1010.84
2023-05-02T04:41:45.420Z,1010.84
2023-05-02T04:42:45.904Z,1010.87
2023-05-02T04:43:45.408Z,1010.86
2023-05-02T04:44:45.395Z,1010.83
2023-05-02T04:45:45.409Z,1010.88
2023-05-02T04:46:45.575Z,1010.91
2023-05-02T04:47:46.752Z,1010.93
2023-05-02T04:48:45.400Z,1010.96
2023-05-02T04:49:45.403Z,1011.00
2023-05-02T04:50:45.376Z,1011.01
2023-05-02T04:51:46.228Z,1010.99
2023-05-02T04:52:45.868Z,1011.01
2023-05-02T04:53:45.366Z,1011.07
2023-05-02T04:54:45.411Z,1011.06
2023-05-02T04:55:45.394Z,1011.07
2023-05-02T04:56:45.364Z,1011.07
2023-05-02T04:57:45.408Z,1011.07
2023-05-02T04:58:45.381Z,1011.12
2023-05-02T04:59:45.350Z,1011.17
2023-05-02T05:00:46.231Z,1011.17
2023-05-02T05:01:45.422Z,1011.21
2023-05-02T05:02:46.276Z,1011.21
2023-05-02T05:03:45.466Z,1011.19
2023-05-02T05:04:45.373Z,1011.26
2023-05-02T05:05:45.386Z,1011.30
2023-05-02T05:06:45.416Z,1011.31
2023-05-02T05:07:45.362Z,1011.30
2023-05-02T05:08:45.355Z,1011.37
2023-05-02T05:09:45.355Z,1011.35
2023-05-02T05:10:46.727Z,1011.42
2023-05-02T05:11:45.325Z,1011.40
2023-05-02T05:12:45.325Z,1011.37
2023-05-02T05:13:45.319Z,1011.37
2023-05-02T05:14:45.369Z,1011.39
2023-05-02T05:15:45.420Z,1011.41
2023-05-02T05:16:45.357Z,1011.44
2023-05-02T05:17:46.266Z,1011.45
2023-05-02T05:18:45.313Z,1011.48
2023-05-02T05:19:45.291Z,1011.49
2023-05-02T05:20:45.337Z,1011.50
2023-05-02T05:21:46.240Z,1011.49
2023-05-02T05:22:46.258Z,1011.55
2023-05-02T05:23:46.363Z,1011.58
2023-05-02T05:24:46.237Z,1011.61
2023-05-02T05:25:46.241Z,1011.61
2023-05-02T05:26:46.239Z,1011.65
2023-05-02T05:27:46.740Z,1011.66
2023-05-02T05:28:46.244Z,1011.67
2023-05-02T05:29:46.238Z,1011.68
2023-05-02T05:30:46.250Z,1011.73
2023-05-02T05:31:45.789Z,1011.70
2023-05-02T05:32:45.293Z,1011.71
2023-05-02T05:33:45.310Z,1011.75
2023-05-02T05:34:45.263Z,1011.77
2023-05-02T05:35:45.274Z,1011.83
2023-05-02T05:36:45.255Z,1011.84
2023-05-02T05:37:46.240Z,1011.83
2023-05-02T05:38:45.247Z,1011.83
2023-05-02T05:39:46.732Z,1011.89
2023-05-02T05:40:45.280Z,1011.84
2023-05-02T05:41:45.264Z,1011.81
2023-05-02T05:42:45.286Z,1011.78
2023-05-02T05:43:45.251Z,1011.92
2023-05-02T05:44:45.242Z,1011.91
2023-05-02T05:45:46.235Z,1012.03
2023-05-02T05:46:45.311Z,1012.08
2023-05-02T05:47:46.338Z,1012.09
2023-05-02T05:48:45.258Z,1012.17
2023-05-02T05:49:45.246Z,1012.21
2023-05-02T05:50:45.284Z,1012.26
2023-05-02T05:51:45.280Z,1012.27
2023-05-02T05:52:45.744Z,1012.28
2023-05-02T05:53:45.246Z,1012.31
2023-05-02T05:54:45.757Z,1012.30
2023-05-02T05:55:45.745Z,1012.29
2023-05-02T05:56:45.751Z,1012.29
2023-05-02T05:57:47.822Z,1012.33
2023-05-02T05:58:45.295Z,1012.34
2023-05-02T05:59:45.280Z,1012.38
2023-05-02T06:00:45.291Z,1012.43
2023-05-02T06:01:45.836Z,1012.48
2023-05-02T06:02:45.361Z,1012.52
2023-05-02T06:03:45.486Z,1012.57
2023-05-02T06:04:46.309Z,1012.54
2023-05-02T06:05:46.251Z,1012.59
2023-05-02T06:06:45.376Z,1012.60
2023-05-02T06:07:46.265Z,1012.54
2023-05-02T06:08:45.344Z,1012.64
2023-05-02T06:09:45.342Z,1012.52
2023-05-02T06:10:45.325Z,1012.67
2023-05-02T06:11:46.276Z,1012.81
2023-05-02T06:12:47.274Z,1012.87
2023-05-02T06:13:46.254Z,1012.78
2023-05-02T06:14:45.377Z,1012.67
2023-05-02T06:15:45.405Z,1012.65
2023-05-02T06:16:45.399Z,1012.65
2023-05-02T06:17:46.469Z,1012.66
2023-05-02T06:18:46.262Z,1012.75
2023-05-02T06:19:45.402Z,1012.78
2023-05-02T06:20:45.409Z,1012.77
2023-05-02T06:21:53.287Z,1012.83
2023-05-02T06:23:50.309Z,1012.81
2023-05-02T06:24:49.444Z,1012.83
2023-05-02T06:26:55.419Z,1012.81
2023-05-02T06:27:53.479Z,1012.98
2023-05-02T06:29:57.763Z,1013.05
2023-05-02T06:30:58.500Z,1013.01
2023-05-02T06:31:58.465Z,1012.95
2023-05-02T06:32:57.676Z,1012.96
2023-05-02T06:33:57.559Z,1013.02
2023-05-02T06:34:58.390Z,1013.01
2023-05-02T06:35:59.194Z,1013.02
2023-05-02T06:36:57.602Z,1013.00
2023-05-02T06:37:57.605Z,1012.99
2023-05-02T06:38:57.622Z,1012.97
2023-05-02T06:39:57.833Z,1012.95
2023-05-02T06:40:57.631Z,1012.98
2023-05-02T06:41:58.418Z,1013.03
2023-05-02T06:42:58.458Z,1013.00
2023-05-02T06:43:57.758Z,1013.09
2023-05-02T06:44:57.660Z,1013.07
2023-05-02T06:45:57.681Z,1013.13
2023-05-02T06:46:57.715Z,1013.16
2023-05-02T06:47:57.714Z,1013.15
2023-05-02T06:48:58.892Z,1013.19
2023-05-02T06:49:57.803Z,1013.17
2023-05-02T06:50:57.724Z,1013.23
2023-05-02T06:51:58.399Z,1013.26
2023-05-02T06:52:57.755Z,1013.30
2023-05-02T06:53:58.405Z,1013.35
2023-05-02T06:54:57.754Z,1013.34
2023-05-02T06:55:57.782Z,1013.37
2023-05-02T06:56:57.789Z,1013.41
2023-05-02T06:57:58.398Z,1013.42
2023-05-02T06:58:57.823Z,1013.52
2023-05-02T06:59:58.093Z,1013.51
2023-05-02T07:00:57.908Z,1013.54
2023-05-02T07:01:57.868Z,1013.54
2023-05-02T07:02:58.437Z,1013.61
2023-05-02T07:03:57.894Z,1013.56
2023-05-02T07:04:57.865Z,1013.60
2023-05-02T07:05:57.877Z,1013.54
2023-05-02T07:06:57.918Z,1013.60
2023-05-02T07:07:58.417Z,1013.62
2023-05-02T07:08:57.896Z,1013.60
2023-05-02T07:09:58.073Z,1013.61
2023-05-02T07:10:57.918Z,1013.60
2023-05-02T07:11:58.495Z,1013.62
2023-05-02T07:12:57.935Z,1013.66
2023-05-02T07:13:58.954Z,1013.77
2023-05-02T07:14:58.918Z,1013.81
2023-05-02T07:15:57.956Z,1013.68
2023-05-02T07:16:57.984Z,1013.65
2023-05-02T07:17:58.042Z,1013.66
2023-05-02T07:18:57.970Z,1013.67
2023-05-02T07:19:59.041Z,1013.68
2023-05-02T07:21:01.088Z,1013.65
2023-05-02T07:21:57.993Z,1013.68
2023-05-02T07:22:58.002Z,1013.71
2023-05-02T07:23:57.996Z,1013.68
2023-05-02T07:24:58.029Z,1013.72
2023-05-02T07:25:58.917Z,1013.70
2023-05-02T07:26:58.032Z,1013.67
2023-05-02T07:27:58.953Z,1013.75
2023-05-02T07:28:58.036Z,1013.73
2023-05-02T07:29:58.278Z,1013.72
2023-05-02T07:30:58.048Z,1013.74
2023-05-02T07:31:58.072Z,1013.77
2023-05-02T07:32:58.152Z,1013.72
2023-05-02T07:33:58.052Z,1013.75
2023-05-02T07:34:58.051Z,1013.84
2023-05-02T07:35:58.038Z,1013.75
2023-05-02T07:36:58.038Z,1013.79
2023-05-02T07:37:58.063Z,1013.79
2023-05-02T07:38:58.047Z,1013.79
2023-05-02T07:39:58.237Z,1013.80
2023-05-02T07:40:58.098Z,1013.81
2023-05-02T07:41:58.928Z,1013.77
2023-05-02T07:42:58.062Z,1013.80
2023-05-02T07:43:58.055Z,1013.74
2023-05-02T07:44:58.068Z,1013.78
2023-05-02T07:45:58.146Z,1013.80
2023-05-02T07:46:58.927Z,1013.79
2023-05-02T07:47:58.154Z,1013.83
2023-05-02T07:48:58.084Z,1013.81
2023-05-02T07:49:59.293Z,1013.89
2023-05-02T07:50:58.111Z,1013.88
2023-05-02T07:51:58.126Z,1013.84
2023-05-02T07:52:59.014Z,1013.90
2023-05-02T07:53:58.079Z,1013.91
2023-05-02T07:54:58.076Z,1013.92
2023-05-02T07:55:58.101Z,1013.93
2023-05-02T07:56:58.341Z,1013.92
2023-05-02T07:57:58.084Z,1013.93
2023-05-02T07:58:58.075Z,1013.93
2023-05-02T07:59:58.200Z,1013.99
2023-05-02T08:00:58.066Z,1013.99
2023-05-02T08:01:58.086Z,1014.03
2023-05-02T08:02:58.224Z,1013.97
2023-05-02T08:03:58.318Z,1013.96
2023-05-02T08:04:58.598Z,1014.02
2023-05-02T08:05:58.063Z,1014.02
2023-05-02T08:06:58.154Z,1013.99
2023-05-02T08:07:58.072Z,1014.06
2023-05-02T08:08:58.063Z,1014.03
2023-05-02T08:09:58.087Z,1014.08
2023-05-02T08:10:58.053Z,1014.04
2023-05-02T08:11:59.519Z,1014.04
2023-05-02T08:12:58.071Z,1014.02
2023-05-02T08:13:58.071Z,1014.09
2023-05-02T08:14:59.010Z,1014.08
2023-05-02T08:15:58.177Z,1014.12
2023-05-02T08:16:59.451Z,1014.09
2023-05-02T08:17:58.952Z,1014.14
2023-05-02T08:18:58.084Z,1014.13
2023-05-02T08:19:58.280Z,1014.12
2023-05-02T08:20:58.057Z,1014.14
2023-05-02T08:21:58.061Z,1014.16
2023-05-02T08:22:59.933Z,1014.16
2023-05-02T08:23:58.136Z,1014.15
2023-05-02T08:24:58.075Z,1014.18
2023-05-02T08:25:58.560Z,1014.22
2023-05-02T08:26:58.964Z,1014.27
2023-05-02T08:27:58.942Z,1014.30
2023-05-02T08:28:58.942Z,1014.31
2023-05-02T08:30:00.668Z,1014.33
2023-05-02T08:30:58.047Z,1014.27
2023-05-02T08:31:58.100Z,1014.32
2023-05-02T08:32:58.071Z,1014.33
2023-05-02T08:33:58.138Z,1014.32
2023-05-02T08:34:58.272Z,1014.36
2023-05-02T08:35:58.054Z,1014.37
2023-05-02T08:36:58.534Z,1014.32
2023-05-02T08:37:58.532Z,1014.28
2023-05-02T08:38:58.030Z,1014.34
2023-05-02T08:39:58.046Z,1014.34
2023-05-02T08:40:58.042Z,1014.33
2023-05-02T08:41:59.449Z,1014.40
2023-05-02T08:42:58.038Z,1014.41
2023-05-02T08:43:58.948Z,1014.43
2023-05-02T08:44:58.055Z,1014.44
2023-05-02T08:45:59.519Z,1014.42
2023-05-02T08:46:58.117Z,1014.43
2023-05-02T08:47:58.096Z,1014.44
2023-05-02T08:48:58.033Z,1014.38
2023-05-02T08:49:58.338Z,1014.42
2023-05-02T08:50:58.057Z,1014.44
2023-05-02T08:51:58.031Z,1014.42
2023-05-02T08:52:58.022Z,1014.42
2023-05-02T08:53:58.034Z,1014.48
2023-05-02T08:54:58.135Z,1014.49
2023-05-02T08:55:58.527Z,1014.49
2023-05-02T08:56:58.024Z,1014.52
2023-05-02T08:57:58.026Z,1014.55
2023-05-02T08:58:59.949Z,1014.55
2023-05-02T08:59:58.950Z,1014.61
2023-05-02T09:00:58.060Z,1014.63
2023-05-02T09:01:58.048Z,1014.63
2023-05-02T09:02:58.085Z,1014.63
2023-05-02T09:03:58.062Z,1014.67
2023-05-02T09:04:58.305Z,1014.67
2023-05-02T09:05:58.058Z,1014.67
2023-05-02T09:06:58.023Z,1014.67
2023-05-02T09:07:58.037Z,1014.71
2023-05-02T09:08:58.037Z,1014.73
2023-05-02T09:09:58.010Z,1014.77
2023-05-02T09:10:58.016Z,1014.75
2023-05-02T09:11:58.028Z,1014.83
2023-05-02T09:12:58.023Z,1014.87
2023-05-02T09:13:58.018Z,1014.84
2023-05-02T09:14:58.224Z,1014.91
2023-05-02T09:15:58.960Z,1014.89
2023-05-02T09:16:58.154Z,1014.89
2023-05-02T09:17:58.097Z,1014.90
2023-05-02T09:18:58.018Z,1014.92
2023-05-02T09:19:58.009Z,1014.94
2023-05-02T09:20:58.008Z,1014.95
2023-05-02T09:21:58.015Z,1015.00
2023-05-02T09:22:58.002Z,1015.03
2023-05-02T09:23:58.984Z,1015.00
2023-05-02T09:24:58.249Z,1014.99
2023-05-02T09:25:58.966Z,1015.02
2023-05-02T09:26:58.001Z,1015.05
2023-05-02T09:27:58.958Z,1015.05
2023-05-02T09:28:58.058Z,1015.05
2023-05-02T09:29:58.031Z,1015.06
2023-05-02T09:30:58.993Z,1015.04
2023-05-02T09:31:58.092Z,1015.03
2023-05-02T09:32:58.065Z,1015.08
2023-05-02T09:33:58.003Z,1015.07
2023-05-02T09:34:59.146Z,1015.14
2023-05-02T09:35:58.006Z,1015.10
2023-05-02T09:36:57.988Z,1015.09
2023-05-02T09:37:57.988Z,1015.09
2023-05-02T09:38:58.006Z,1015.10
2023-05-02T09:39:58.002Z,1015.13
2023-05-02T09:40:58.985Z,1015.11
2023-05-02T09:41:57.985Z,1015.10
2023-05-02T09:42:58.968Z,1015.12
2023-05-02T09:43:58.008Z,1015.16
2023-05-02T09:44:58.103Z,1015.14
2023-05-02T09:45:58.027Z,1015.14
2023-05-02T09:46:57.982Z,1015.13
2023-05-02T09:47:58.010Z,1015.15
2023-05-02T09:48:57.990Z,1015.13
2023-05-02T09:49:57.981Z,1015.17
2023-05-02T09:50:57.987Z,1015.15
2023-05-02T09:51:57.970Z,1015.19
2023-05-02T09:52:57.986Z,1015.21
2023-05-02T09:53:58.011Z,1015.18
2023-05-02T09:54:58.304Z,1015.24
2023-05-02T09:55:58.091Z,1015.25
2023-05-02T09:56:57.970Z,1015.27
2023-05-02T09:57:58.007Z,1015.28
2023-05-02T09:59:00.967Z,1015.25
2023-05-02T09:59:57.982Z,1015.31
2023-05-02T10:00:57.984Z,1015.35
2023-05-02T10:01:58.077Z,1015.33
2023-05-02T10:02:58.029Z,1015.39
2023-05-02T10:03:58.012Z,1015.38
2023-05-02T10:04:58.877Z,1015.38
2023-05-02T10:05:57.960Z,1015.34
2023-05-02T10:06:58.473Z,1015.38
2023-05-02T10:07:58.520Z,1015.48
2023-05-02T10:08:57.976Z,1015.40
2023-05-02T10:09:58.224Z,1015.45
2023-05-02T10:10:57.952Z,1015.47
2023-05-02T10:11:58.473Z,1015.47
2023-05-02T10:12:57.954Z,1015.47
2023-05-02T10:13:57.937Z,1015.46
2023-05-02T10:14:58.184Z,1015.44
2023-05-02T10:15:57.993Z,1015.47
2023-05-02T10:16:58.476Z,1015.52
2023-05-02T10:17:58.010Z,1015.51
2023-05-02T10:18:57.943Z,1015.51
2023-05-02T10:19:57.944Z,1015.50
2023-05-02T10:20:57.948Z,1015.52
2023-05-02T10:21:58.739Z,1015.54
2023-05-02T10:22:57.936Z,1015.53
2023-05-02T10:23:57.932Z,1015.55
2023-05-02T10:24:58.195Z,1015.55
2023-05-02T10:26:00.040Z,1015.58
2023-05-02T10:26:58.086Z,1015.61
2023-05-02T10:27:57.933Z,1015.63
2023-05-02T10:28:57.950Z,1015.71
2023-05-02T10:29:57.930Z,1015.65
2023-05-02T10:30:57.976Z,1015.73
2023-05-02T10:31:58.031Z,1015.72
2023-05-02T10:32:59.112Z,1015.72
2023-05-02T10:33:57.952Z,1015.75
2023-05-02T10:34:57.975Z,1015.76
2023-05-02T10:35:57.918Z,1015.77
2023-05-02T10:36:57.907Z,1015.76
2023-05-02T10:37:57.926Z,1015.79
2023-05-02T10:38:57.919Z,1015.87
2023-05-02T10:39:58.487Z,1015.93
2023-05-02T10:40:57.930Z,1015.99
2023-05-02T10:41:57.917Z,1016.00
2023-05-02T10:42:57.893Z,1016.03
2023-05-02T10:43:57.913Z,1016.03
2023-05-02T10:44:58.074Z,1016.05
2023-05-02T10:45:57.933Z,1016.06
2023-05-02T10:46:58.028Z,1016.06
2023-05-02T10:47:57.988Z,1016.10
2023-05-02T10:48:57.890Z,1016.16
2023-05-02T10:49:57.984Z,1016.18
2023-05-02T10:50:58.502Z,1016.21
2023-05-02T10:51:57.883Z,1016.24
2023-05-02T10:52:58.481Z,1016.22
2023-05-02T10:53:57.895Z,1016.22
2023-05-02T10:54:58.040Z,1016.20
2023-05-02T10:55:57.885Z,1016.20
2023-05-02T10:56:58.482Z,1016.21
2023-05-02T10:57:57.915Z,1016.23
2023-05-02T10:58:57.896Z,1016.28
2023-05-02T10:59:57.895Z,1016.25
2023-05-02T11:00:58.021Z,1016.31
2023-05-02T11:01:57.940Z,1016.30
2023-05-02T11:02:58.134Z,1016.32
2023-05-02T11:03:57.876Z,1016.37
2023-05-02T11:04:58.157Z,1016.36
2023-05-02T11:05:58.488Z,1016.39
2023-05-02T11:06:57.857Z,1016.40
2023-05-02T11:07:57.899Z,1016.43
2023-05-02T11:08:57.852Z,1016.42
2023-05-02T11:09:57.847Z,1016.51
2023-05-02T11:10:57.858Z,1016.52
2023-05-02T11:11:57.846Z,1016.60
2023-05-02T11:12:57.865Z,1016.57
2023-05-02T11:13:57.853Z,1016.60
2023-05-02T11:14:58.099Z,1016.61
2023-05-02T11:15:57.848Z,1016.60
2023-05-02T11:16:57.919Z,1016.59
2023-05-02T11:17:58.513Z,1016.64
2023-05-02T11:18:57.839Z,1016.66
2023-05-02T11:19:58.517Z,1016.69
2023-05-02T11:20:59.107Z,1016.62
2023-05-02T11:21:57.840Z,1016.66
2023-05-02T11:22:59.505Z,1016.68
2023-05-02T11:23:58.419Z,1016.66
2023-05-02T11:24:58.663Z,1016.70
2023-05-02T11:25:58.495Z,1016.73
2023-05-02T11:26:58.988Z,1016.79
2023-05-02T11:27:57.866Z,1016.76
2023-05-02T11:28:57.812Z,1016.71
2023-05-02T11:29:57.826Z,1016.77
2023-05-02T11:30:58.536Z,1016.80
2023-05-02T11:31:57.854Z,1016.81
2023-05-02T11:32:57.847Z,1016.80
2023-05-02T11:33:57.863Z,1016.86
2023-05-02T11:34:59.213Z,1016.82
2023-05-02T11:35:57.789Z,1016.84
2023-05-02T11:36:57.793Z,1016.89
2023-05-02T11:37:57.787Z,1016.95
2023-05-02T11:38:57.781Z,1016.93
2023-05-02T11:39:58.510Z,1017.00
2023-05-02T11:40:57.794Z,1016.90
2023-05-02T11:41:57.794Z,1016.95
2023-05-02T11:42:59.007Z,1017.00
2023-05-02T11:43:57.815Z,1016.99
2023-05-02T11:44:58.923Z,1017.01
2023-05-02T11:45:57.826Z,1016.96
2023-05-02T11:46:57.847Z,1016.98
2023-05-02T11:47:57.808Z,1016.97
2023-05-02T11:48:57.769Z,1017.00
2023-05-02T11:49:57.771Z,1017.01
2023-05-02T11:50:57.763Z,1016.94
2023-05-02T11:51:57.996Z,1016.93
2023-05-02T11:52:58.517Z,1017.00
2023-05-02T11:53:58.501Z,1017.04
2023-05-02T11:54:58.549Z,1016.96
2023-05-02T11:55:59.095Z,1016.98
2023-05-02T11:56:57.749Z,1017.04
2023-05-02T11:57:58.543Z,1017.02
2023-05-02T11:58:57.729Z,1017.03
2023-05-02T11:59:57.738Z,1017.02
2023-05-02T12:00:57.769Z,1017.09
2023-05-02T12:01:57.754Z,1017.12
2023-05-02T12:02:57.826Z,1017.11
2023-05-02T12:03:57.788Z,1017.13
2023-05-02T12:04:57.741Z,1017.12
2023-05-02T12:05:58.559Z,1017.16
2023-05-02T12:06:57.785Z,1017.17
2023-05-02T12:07:58.519Z,1017.19
2023-05-02T12:08:57.720Z,1017.14
2023-05-02T12:09:57.724Z,1017.17
2023-05-02T12:10:57.736Z,1017.21
2023-05-02T12:11:58.552Z,1017.17
2023-05-02T12:12:58.523Z,1017.19
2023-05-02T12:13:57.732Z,1017.19
2023-05-02T12:14:59.217Z,1017.24
2023-05-02T12:15:57.762Z,1017.25
2023-05-02T12:16:57.740Z,1017.26
2023-05-02T12:17:57.819Z,1017.25
2023-05-02T12:18:57.734Z,1017.28
2023-05-02T12:19:57.772Z,1017.28
2023-05-02T12:20:57.700Z,1017.31
2023-05-02T12:21:58.524Z,1017.31
2023-05-02T12:22:57.704Z,1017.36
2023-05-02T12:23:57.699Z,1017.33
2023-05-02T12:25:00.255Z,1017.30
2023-05-02T12:25:57.692Z,1017.29
2023-05-02T12:26:59.009Z,1017.36
2023-05-02T12:27:57.696Z,1017.30
2023-05-02T12:28:57.677Z,1017.35
2023-05-02T12:29:57.688Z,1017.34